Archival Weather

Yakutsk

Yakutsk, Russia (UEEE)

Report from: Tuesday, June 6, 2023 2:00 PM JST
Current time: Thursday, May 30, 2024 10:13 AM JST

Current weather – Weather history – Daily summaries
Weather forecast

Temperature20.0°C (68.0°F)
Dew point3.0°C (37.4°F)
Winds 7.8 kts (4 m/s, 8.9 mph) West-Northwest (300°)
Clouds Sky clear
Altimeter29.53 in.Hg (1000 mB)
Precip. events QF 4:21 PM
Relative humidity32 %
Density altitude1,148 ft. (350 m)
Remarks Ceiling and visibility OK
No significant changes expected in the next two hours
Flight conditions Visual Meteorological Conditions
Raw dataUEEE 060500Z 30004MPS CAVOK 20/03 Q1000 R05/09//60 NOSIG RMK QFE741
An error has occurred. This application may no longer respond until reloaded. Reload 🗙